Polar Endurance — WDG2085 — position and weather

sailwx.info

Track history (hours):
 
Tides and Currents Weather Stations Pressure Air Temp Water Temp Dewpoint Dewpoint Depression Visibility Wind Speed Wind Dir Waves Ship Positions

Polar Endurance

Owner: Dunlap Towing Co., LaConner, WA. More information available from US FCC via Universal Licensing System and Coast Guard Vessel Documentation Center.

Last reported at 2016-Aug-22 13:00 UTC. Time now 2016-Aug-29 14:41 UTC.
Position N 60°24' W 151°42'.

Length 37 m; draft 4.8 m.

Type: Tow > 200 m length. MMSI: 303144000.

Wind from 360 at 20 knots

Waves 0.5 meters (2 feet)

Barometer 1002.0 mb
Air temperature 15.0 ° C
Visibility: greater than 5.4 NM
Water temperature 13.9 ° C

Date/timePositionNaut miles runAvg speedWind from/ knotsBaromVisibWave heightAir tempDewpointWater temp
2016-Aug-22 13:00N 60°24' W 151°42'111 5.0 360 / 201002.0 5.4 0.515.0 13.9
2016-Aug-21 15:00N 59°06' W 149°06'0 0.0 250 / 201013.9 5.4 1.015.6 15.0
2016-Aug-21 13:00N 59°06' W 149°06'194 8.4 250 / 201013.9 5.4 1.515.6 15.0
2016-Aug-20 14:00N 59°24' W 142°48'105 4.4 320 / 151019.6 5.4 0.515.6 15.6
2016-Aug-19 14:00N 59°12' W 139°24'120 6.0 999 1024.4 5.4 1.015.0 15.0
2016-Aug-18 18:03N 58°16' W 136°01'4 6.7
2016-Aug-18 17:32N 58°17' W 135°54'  
2016-Aug-14 16:33N 51°07' W 127°47'8 8.5
2016-Aug-14 15:33N 51°02' W 127°37'9 8.8
2016-Aug-14 14:33N 50°56' W 127°26'9 9.2
2016-Aug-14 13:31N 50°51' W 127°14'76 8.5
2016-Aug-14 04:32N 50°19' W 125°25'9 9.2
2016-Aug-14 03:33N 50°10' W 125°22'10 9.9
2016-Aug-14 02:33N 50°02' W 125°13'9 9.2
2016-Aug-14 01:33N 49°55' W 125°03'8 8.2
2016-Aug-14 00:33N 49°50' W 124°53'8 8.1
2016-Aug-13 23:33N 49°45' W 124°43'8 8.0
2016-Aug-13 22:33N 49°40' W 124°34'8 8.3
2016-Aug-13 21:33N 49°35' W 124°24'9 9.3
2016-Aug-13 20:33N 49°30' W 124°11'9 8.9
2016-Aug-13 19:33N 49°25' W 123°60'9 9.1
2016-Aug-13 18:33N 49°21' W 123°48'9 8.9
2016-Aug-13 17:33N 49°15' W 123°38'9 8.6
2016-Aug-13 16:33N 49°09' W 123°28'9 8.9
2016-Aug-13 15:33N 49°03' W 123°18'8 8.1
2016-Aug-13 14:33N 48°57' W 123°09'8 8.1
2016-Aug-13 13:33N 48°52' W 122°60'8 7.7
2016-Aug-13 12:33N 48°47' W 122°51'8 7.6
2016-Aug-13 11:33N 48°42' W 122°43'7 6.6
2016-Aug-13 10:33N 48°35' W 122°45'7 7.1
2016-Aug-13 09:33N 48°28' W 122°44'27 8.0
2016-Aug-13 06:12N 48°01' W 122°37'6 8.8
2016-Aug-13 05:33N 47°57' W 122°32'9 8.7
2016-Aug-13 04:33N 47°49' W 122°26'9 9.1
2016-Aug-13 03:33N 47°40' W 122°27'6 5.7
2016-Aug-13 02:33N 47°36' W 122°22'0 0.5
2016-Aug-13 01:33N 47°35' W 122°21'0 0.0
2016-Aug-13 00:33N 47°35' W 122°21'0 0.0
2016-Aug-12 23:33N 47°35' W 122°21'0 0.0
2016-Aug-12 22:33N 47°35' W 122°21'0 0.0
2016-Aug-12 21:33N 47°35' W 122°21'9 9.5
2016-Aug-12 20:33N 47°44' W 122°26'1312.6
2016-Aug-12 19:33N 47°56' W 122°20'5 5.1
2016-Aug-12 18:33N 47°59' W 122°13'0 0.0
2016-Aug-12 17:33N 47°59' W 122°13'0 0.0
2016-Aug-12 16:33N 47°59' W 122°13'0 0.0
2016-Aug-12 15:33N 47°59' W 122°13'  
Track history (hours):
 
Tides and Currents Weather Stations Pressure Air Temp Water Temp Dewpoint Dewpoint Depression Visibility Wind Speed Wind Dir Waves Ship Positions

Polar Endurance

Owner: Dunlap Towing Co., LaConner, WA. More information available from US FCC via Universal Licensing System and Coast Guard Vessel Documentation Center.

Last reported at 2016-Aug-22 13:00 UTC. Time now 2016-Aug-29 14:41 UTC.
Position N 60°24' W 151°42'.

Length 37 m; draft 4.8 m.

Type: Tow > 200 m length. MMSI: 303144000.

Wind from 360 at 20 knots

Waves 0.5 meters (2 feet)

Barometer 1002.0 mb
Air temperature 15.0 ° C
Visibility: greater than 5.4 NM
Water temperature 13.9 ° C

Date/timePositionNaut miles runAvg speedWind from/ knotsBaromVisibWave heightAir tempDewpointWater temp
2016-Aug-22 13:00N 60°24' W 151°42'111 5.0 360 / 201002.0 5.4 0.515.0 13.9
2016-Aug-21 15:00N 59°06' W 149°06'0 0.0 250 / 201013.9 5.4 1.015.6 15.0
2016-Aug-21 13:00N 59°06' W 149°06'194 8.4 250 / 201013.9 5.4 1.515.6 15.0
2016-Aug-20 14:00N 59°24' W 142°48'105 4.4 320 / 151019.6 5.4 0.515.6 15.6
2016-Aug-19 14:00N 59°12' W 139°24'120 6.0 999 1024.4 5.4 1.015.0 15.0
2016-Aug-18 18:03N 58°16' W 136°01'4 6.7
2016-Aug-18 17:32N 58°17' W 135°54'  
2016-Aug-14 16:33N 51°07' W 127°47'8 8.5
2016-Aug-14 15:33N 51°02' W 127°37'9 8.8
2016-Aug-14 14:33N 50°56' W 127°26'9 9.2
2016-Aug-14 13:31N 50°51' W 127°14'76 8.5
2016-Aug-14 04:32N 50°19' W 125°25'9 9.2
2016-Aug-14 03:33N 50°10' W 125°22'10 9.9
2016-Aug-14 02:33N 50°02' W 125°13'9 9.2
2016-Aug-14 01:33N 49°55' W 125°03'8 8.2
2016-Aug-14 00:33N 49°50' W 124°53'8 8.1
2016-Aug-13 23:33N 49°45' W 124°43'8 8.0
2016-Aug-13 22:33N 49°40' W 124°34'8 8.3
2016-Aug-13 21:33N 49°35' W 124°24'9 9.3
2016-Aug-13 20:33N 49°30' W 124°11'9 8.9
2016-Aug-13 19:33N 49°25' W 123°60'9 9.1
2016-Aug-13 18:33N 49°21' W 123°48'9 8.9
2016-Aug-13 17:33N 49°15' W 123°38'9 8.6
2016-Aug-13 16:33N 49°09' W 123°28'9 8.9
2016-Aug-13 15:33N 49°03' W 123°18'8 8.1
2016-Aug-13 14:33N 48°57' W 123°09'8 8.1
2016-Aug-13 13:33N 48°52' W 122°60'8 7.7
2016-Aug-13 12:33N 48°47' W 122°51'8 7.6
2016-Aug-13 11:33N 48°42' W 122°43'7 6.6
2016-Aug-13 10:33N 48°35' W 122°45'7 7.1
2016-Aug-13 09:33N 48°28' W 122°44'27 8.0
2016-Aug-13 06:12N 48°01' W 122°37'6 8.8
2016-Aug-13 05:33N 47°57' W 122°32'9 8.7
2016-Aug-13 04:33N 47°49' W 122°26'9 9.1
2016-Aug-13 03:33N 47°40' W 122°27'6 5.7
2016-Aug-13 02:33N 47°36' W 122°22'0 0.5
2016-Aug-13 01:33N 47°35' W 122°21'0 0.0
2016-Aug-13 00:33N 47°35' W 122°21'0 0.0
2016-Aug-12 23:33N 47°35' W 122°21'0 0.0
2016-Aug-12 22:33N 47°35' W 122°21'0 0.0
2016-Aug-12 21:33N 47°35' W 122°21'9 9.5
2016-Aug-12 20:33N 47°44' W 122°26'1312.6
2016-Aug-12 19:33N 47°56' W 122°20'5 5.1
2016-Aug-12 18:33N 47°59' W 122°13'0 0.0
2016-Aug-12 17:33N 47°59' W 122°13'0 0.0
2016-Aug-12 16:33N 47°59' W 122°13'0 0.0
2016-Aug-12 15:33N 47°59' W 122°13'  

Dump ship's entire track history